Morro Bay, CA

3:52 PM PST on February 28, 2015 (GMT -0800)
Santa Maria Public Airport / Captain G. Allan Hancock Field | Change Station
CLOSE
Current Station
Airport
Location: Santa Maria,
Elevation: 240 ft
Nearby Weather Stations

Elev 240 ft 34.90 °N, 120.45 °W | Updated 1 hour ago

Overcast
Overcast
62 °F
Feels Like 62 °F
N
8
Wind Variable Wind from SW

Today
High -- | Low -- °F
--% Chance of Precip.
Yesterday
High -- | Low -- °F
Precip. -- in
6:34 AM 5:57 PM
Waxing Gibbous, 81% visible
Pressure 29.83 in
Visibility 10.0 miles
Clouds Scattered Clouds 3900 ft
Dew Point 42 °F
Humidity 48%
Rainfall 0.01 in
Snow Depth Not available.
UV 3 out of 12
Pollen 8.30 out of 12
Air Quality Not available.
Flu Activity Not available.
METAR KSMX 282251Z 22007KT 210V270 10SM SCT039 17/06 A2982 RMK AO2 SLP099 T01670056

More Conditions Fewer Conditions

Pressure 29.83 in
Visibility 10.0 miles
Clouds Scattered Clouds 3900 ft
Dew Point 42 °F
Humidity 48%
Rainfall 0.01 in
Snow Depth Not available.
UV 3 out of 12
Pollen 8.30 out of 12
Air Quality Not available.
Flu Activity Not available.
METAR KSMX 282251Z 22007KT 210V270 10SM SCT039 17/06 A2982 RMK AO2 SLP099 T01670056

More Conditions Fewer Conditions

10-Day Weather Forecast

Almanac

Astronomy

Feb. 28, 2015 Rise Set
Actual Time
Civil Twilight
Nautical Twilight
Astronomical Twilight
Moon
Length of Visible Light
Length of Day
Tomorrow will be .
, % of the Moon is Illuminated

Today's Extremes

State Highs State Lows

Community

WunderPhotos

Upload Photos

1,801,176 photos uploaded!

WunderBlogs® & News

Nearby

Air Quality

  Air Quality AQ Index Pollutant
Not available.

Snow Depth

Station Depth Elevation

Earthquake Activity

City Distance Mag. Time & Date
Minimum magnitude displayed is 2.5.

Coastal Water Temperatures

Place Temperature

Nearby Weather Stations